TimeEDT,TemperatureF,Dew PointF,Humidity,Sea Level PressureIn,VisibilityMPH,Wind Direction,Wind SpeedMPH,Gust SpeedMPH,PrecipitationIn,Events,Conditions,WindDirDegrees,DateUTC
12:16 AM,43.7,31.3,62,29.81,10.0,West,5.8,-,N/A,,Overcast,260,2012-10-06 04:16:00
12:35 AM,43.7,30.4,59,29.80,10.0,West,8.1,-,N/A,,Overcast,270,2012-10-06 04:35:00
12:55 AM,43.2,30.4,61,29.80,10.0,West,4.6,-,N/A,,Overcast,260,2012-10-06 04:55:00
1:16 AM,42.8,29.3,59,29.80,10.0,West,6.9,-,N/A,,Overcast,270,2012-10-06 05:16:00
1:35 AM,41.9,29.3,61,29.79,10.0,West,4.6,-,N/A,,Mostly Cloudy,260,2012-10-06 05:35:00
1:55 AM,41.5,29.8,63,29.79,10.0,West,8.1,-,N/A,,Scattered Clouds,260,2012-10-06 05:55:00
2:16 AM,41.4,30.9,66,29.79,10.0,West,5.8,-,N/A,,Mostly Cloudy,270,2012-10-06 06:16:00
2:55 AM,42.3,32.0,67,29.78,10.0,West,5.8,19.6,N/A,,Overcast,260,2012-10-06 06:55:00
3:15 AM,42.6,32.2,67,29.78,10.0,WSW,9.2,-,N/A,,Overcast,250,2012-10-06 07:15:00
3:35 AM,42.8,32.5,67,29.77,10.0,WNW,5.8,-,N/A,,Overcast,290,2012-10-06 07:35:00
3:55 AM,42.8,32.7,68,29.77,10.0,West,6.9,-,N/A,,Overcast,270,2012-10-06 07:55:00
4:15 AM,42.8,33.1,69,29.76,10.0,WSW,5.8,-,N/A,,Overcast,250,2012-10-06 08:15:00
4:35 AM,42.8,33.4,70,29.76,10.0,West,6.9,-,N/A,,Overcast,260,2012-10-06 08:35:00
4:55 AM,43.0,34.2,71,29.76,10.0,West,8.1,-,N/A,,Overcast,260,2012-10-06 08:55:00
5:35 AM,42.8,34.9,74,29.76,10.0,WSW,8.1,16.1,N/A,,Mostly Cloudy,250,2012-10-06 09:35:00
5:55 AM,42.8,34.9,74,29.75,10.0,West,5.8,-,N/A,,Mostly Cloudy,260,2012-10-06 09:55:00
6:15 AM,42.4,34.7,74,29.75,10.0,West,8.1,-,N/A,,Overcast,280,2012-10-06 10:15:00
6:36 AM,42.3,34.9,75,29.76,10.0,West,6.9,-,N/A,,Overcast,270,2012-10-06 10:36:00
6:55 AM,41.9,34.7,76,29.76,10.0,West,6.9,-,N/A,,Overcast,260,2012-10-06 10:55:00
7:15 AM,41.2,34.9,78,29.76,10.0,WSW,8.1,-,N/A,,Mostly Cloudy,250,2012-10-06 11:15:00
7:36 AM,40.3,34.9,81,29.76,10.0,West,8.1,-,N/A,,Scattered Clouds,260,2012-10-06 11:36:00
7:55 AM,40.1,35.1,82,29.76,10.0,West,8.1,-,N/A,,Scattered Clouds,260,2012-10-06 11:55:00
8:15 AM,40.5,35.4,82,29.77,10.0,West,9.2,-,N/A,,Scattered Clouds,270,2012-10-06 12:15:00
8:35 AM,40.8,35.8,82,29.77,10.0,West,6.9,-,N/A,,Mostly Cloudy,270,2012-10-06 12:35:00
8:55 AM,41.5,36.5,82,29.78,10.0,West,9.2,19.6,N/A,,Overcast,270,2012-10-06 12:55:00
9:15 AM,42.8,36.1,77,29.78,10.0,WNW,12.7,19.6,N/A,,Mostly Cloudy,290,2012-10-06 13:15:00
9:36 AM,43.5,35.4,73,29.79,10.0,West,16.1,21.9,N/A,,Mostly Cloudy,280,2012-10-06 13:36:00
10:15 AM,42.3,35.6,77,29.80,10.0,WNW,12.7,24.2,N/A,,Overcast,290,2012-10-06 14:15:00
10:35 AM,41.0,36.7,85,29.81,7.0,WNW,13.8,19.6,N/A,Rain,Light Rain,290,2012-10-06 14:35:00
10:55 AM,41.7,36.3,81,29.82,10.0,West,10.4,19.6,N/A,,Mostly Cloudy,280,2012-10-06 14:55:00
11:15 AM,43.0,35.6,75,29.83,10.0,WNW,11.5,19.6,N/A,,Mostly Cloudy,290,2012-10-06 15:15:00
11:36 AM,43.0,35.6,75,29.83,10.0,West,12.7,20.7,N/A,,Mostly Cloudy,270,2012-10-06 15:36:00
11:55 AM,44.8,36.3,72,29.84,10.0,West,9.2,19.6,N/A,,Mostly Cloudy,270,2012-10-06 15:55:00
12:15 PM,45.1,32.9,62,29.84,10.0,WNW,10.4,20.7,N/A,,Mostly Cloudy,300,2012-10-06 16:15:00
12:35 PM,46.0,30.9,56,29.86,10.0,WNW,9.2,23.0,N/A,,Mostly Cloudy,300,2012-10-06 16:35:00
12:55 PM,45.3,30.9,57,29.86,10.0,NW,12.7,21.9,N/A,,Scattered Clouds,320,2012-10-06 16:55:00
1:16 PM,46.9,31.1,54,29.87,10.0,NW,6.9,16.1,N/A,,Mostly Cloudy,310,2012-10-06 17:16:00
1:35 PM,47.1,30.0,51,29.87,10.0,WNW,11.5,18.4,N/A,,Overcast,290,2012-10-06 17:35:00
1:56 PM,48.0,30.4,51,29.88,10.0,WNW,10.4,20.7,N/A,,Overcast,290,2012-10-06 17:56:00
2:15 PM,47.3,28.8,49,29.88,10.0,NW,9.2,24.2,N/A,,Overcast,320,2012-10-06 18:15:00
2:35 PM,47.5,29.8,50,29.89,10.0,NW,10.4,23.0,N/A,,Mostly Cloudy,310,2012-10-06 18:35:00
2:56 PM,46.9,28.8,49,29.89,10.0,WNW,10.4,20.7,N/A,,Mostly Cloudy,290,2012-10-06 18:56:00
3:15 PM,46.6,28.4,49,29.90,10.0,NW,15.0,21.9,N/A,,Overcast,310,2012-10-06 19:15:00
3:35 PM,48.2,29.5,48,29.91,10.0,NW,11.5,16.1,N/A,,Overcast,310,2012-10-06 19:35:00
3:55 PM,45.3,33.3,63,29.92,10.0,WNW,10.4,16.1,N/A,,Overcast,290,2012-10-06 19:55:00
4:15 PM,44.1,33.3,66,29.93,10.0,West,9.2,23.0,N/A,,Scattered Clouds,280,2012-10-06 20:15:00
4:35 PM,43.9,33.6,67,29.93,10.0,West,12.7,21.9,N/A,,Scattered Clouds,280,2012-10-06 20:35:00
4:55 PM,44.6,33.4,65,29.94,10.0,WNW,13.8,21.9,N/A,,Clear,300,2012-10-06 20:55:00
5:15 PM,43.7,34.5,70,29.95,10.0,WNW,11.5,19.6,N/A,,Scattered Clouds,300,2012-10-06 21:15:00
5:35 PM,42.8,34.3,72,29.95,10.0,WNW,10.4,20.7,N/A,,Scattered Clouds,290,2012-10-06 21:35:00
5:55 PM,42.6,33.6,70,29.96,10.0,NW,9.2,-,N/A,,Clear,310,2012-10-06 21:55:00
6:15 PM,42.3,31.5,66,29.97,10.0,WNW,10.4,19.6,N/A,,Clear,300,2012-10-06 22:15:00
6:35 PM,41.2,32.0,70,29.98,10.0,NW,5.8,-,N/A,,Clear,310,2012-10-06 22:35:00
6:55 PM,41.0,31.6,69,29.98,10.0,WNW,8.1,-,N/A,,Clear,300,2012-10-06 22:55:00
7:15 PM,40.5,32.2,72,29.98,10.0,NW,9.2,-,N/A,,Clear,310,2012-10-06 23:15:00
7:35 PM,40.1,32.2,73,30.00,10.0,NW,9.2,18.4,N/A,,Clear,320,2012-10-06 23:35:00
7:56 PM,41.0,31.8,70,30.01,10.0,NNW,6.9,17.3,N/A,,Mostly Cloudy,330,2012-10-06 23:56:00
8:15 PM,40.3,30.9,69,30.02,10.0,NW,6.9,-,N/A,,Overcast,320,2012-10-07 00:15:00
8:35 PM,39.9,30.6,69,30.02,10.0,NNW,9.2,-,N/A,,Scattered Clouds,330,2012-10-07 00:35:00
8:56 PM,39.4,30.7,71,30.03,10.0,NNW,5.8,-,N/A,,Scattered Clouds,330,2012-10-07 00:56:00
9:15 PM,39.6,30.6,70,30.04,10.0,WNW,3.5,-,N/A,,Mostly Cloudy,300,2012-10-07 01:15:00
9:35 PM,39.7,33.4,78,30.05,10.0,NW,3.5,-,N/A,,Overcast,310,2012-10-07 01:35:00
9:55 PM,39.6,33.1,78,30.05,10.0,WNW,4.6,-,N/A,,Overcast,300,2012-10-07 01:55:00
10:15 PM,39.4,32.4,76,30.05,10.0,NW,6.9,-,N/A,,Overcast,320,2012-10-07 02:15:00
10:35 PM,39.4,32.0,75,30.05,10.0,NNW,3.5,-,N/A,,Overcast,330,2012-10-07 02:35:00
10:55 PM,38.7,31.1,74,30.06,10.0,Calm,Calm,-,N/A,,Scattered Clouds,0,2012-10-07 02:55:00
11:15 PM,37.2,31.1,79,30.06,10.0,Calm,Calm,-,N/A,,Mostly Cloudy,0,2012-10-07 03:15:00
11:35 PM,35.2,30.9,84,30.06,10.0,Calm,Calm,-,N/A,,Mostly Cloudy,0,2012-10-07 03:35:00
11:55 PM,36.3,30.6,80,30.06,10.0,NNW,3.5,-,N/A,,Overcast,330,2012-10-07 03:55:00